Palomar Park, California
Current Conditions -  °F | °C
As of 4:47 PM on Sunday 23 Nov 2014 (Local Time) from KSQL Reporting Station
Broken Clouds Broken Clouds  
Wind Chill: 59°   Ceiling: 20000
Heat Index: 59°   Visibility: 10mi
Dew Point: 50°   Wind: 5mph
Humidity: 72%   Direction: 360°N
Pressure: 30.29"   Gusts: NA
Location:  37.4497°N, 122.329°W
Report Text: KSQL 240047Z 36004KT 10SM FEW120 BKN200 15/10 A3029
Loading
Personal Weather Stations






























Interactive Weather Map New forecast layout! Learn more

10-Day Weather Forecast

Advertisements
Track Severe Weather on mobile